Terminal Aerodrome Forecast
Issued by NWS

Home | Current Version | Previous Version | Text Only | Print | Product List | Glossary On
Versions: 1 2 3 4 5 6 7 8 9 10 11 12 13 14 15 16
000
FTUS43 KGRB 311720
TAFMTW
TAF
KMTW 311720Z 3118/0118 24008KT P6SM SCT020
     FM311930 18010KT P6SM SCT025
     FM010100 19003KT P6SM SKC
     FM010400 VRB03KT 5SM BR SCT015
     FM010900 VRB03KT 3SM BR FEW007 SCT015
      TEMPO 0110/0114 1 1/2SM BR SCT007
     FM011400 21008KT P6SM SCT015=

USA.gov is the U.S. government's official web portal to all federal, state and local government web resources and services.